Terminal Aerodrome Forecast
Issued by NWS

Home | Current Version | Previous Version | Graphics & Text | Print | Product List | Glossary On
Versions: 1 2 3 4 5 6 7 8 9 10 11 12 13 14 15 16 17 18 19 20 21 22 23 24 25 26 27 28 29 30 31 32 33 34 35
000
FTUS43 KABR 221730
TAFPIR
TAF
KPIR 221730Z 2218/2318 06011KT P6SM -DZ OVC009
      TEMPO 2218/2222 2SM -DZ BR OVC010
     FM222200 06011KT P6SM OVC015
     FM230200 07013KT P6SM OVC008
     FM230700 08013KT 3SM BR OVC003
     FM231600 10015KT 5SM BR BKN008
     FM231700 11015G22KT P6SM BKN015=

USA.gov is the U.S. government's official web portal to all federal, state and local government web resources and services.